Time;durP1;ratioP1;P1;durP2;ratioP2;P2;SDS_P1;SDS_P2;PMS_P1;PMS_P2;Temp;Humidity;BMP_temperature;BMP_pressure;BME280_temperature;BME280_humidity;BME280_pressure;Samples;Min_cycle;Max_cycle;Signal;HPM_P1;HPM_P2
2022/08/14 00:04:59;;;;;;;9.27;5.07;;;;;;;;;;10585503;28;20036;-80
2022/08/14 00:10:08;;;;;;;10.07;4.28;;;;;;;;;;10590015;28;20070;-81
2022/08/14 00:15:41;;;;;;;9.70;4.40;;;;;;;;;;10571119;27;20036;-82
2022/08/14 00:20:54;;;;;;;10.73;5.05;;;;;;;;;;10570505;28;20047;-81
2022/08/14 00:26:07;;;;;;;8.65;4.53;;;;;;;;;;10594392;27;20119;-81
2022/08/14 00:31:35;;;;;;;10.00;4.63;;;;;;;;;;10576545;27;20100;-81
2022/08/14 00:36:51;;;;;;;10.30;4.45;;;;;;;;;;10573826;27;20036;-81
2022/08/14 00:42:21;;;;;;;8.80;4.68;;;;;;;;;;10562801;28;20040;-82
2022/08/14 00:47:57;;;;;;;9.38;5.00;;;;;;;;;;10575792;28;20100;-81
2022/08/14 00:53:15;;;;;;;10.07;5.07;;;;;;;;;;10575831;27;20082;-81
2022/08/14 00:58:33;;;;;;;11.48;4.90;;;;;;;;;;10567270;27;20036;-81
2022/08/14 01:03:42;;;;;;;8.60;5.22;;;;;;;;;;10573617;28;20115;-81
2022/08/14 01:08:49;;;;;;;9.23;5.07;;;;;;;;;;10557078;27;20492;-81
2022/08/14 01:14:24;;;;;;;11.45;5.22;;;;;;;;;;10570238;28;20093;-81
2022/08/14 01:25:23;;;;;;;8.50;5.18;;;;;;;;;;10569489;27;20040;-80
2022/08/14 01:30:37;;;;;;;8.95;5.45;;;;;;;;;;10570279;28;20031;-80
2022/08/14 01:36:10;;;;;;;7.53;4.60;;;;;;;;;;10583010;27;20332;-80
2022/08/14 01:41:31;;;;;;;10.80;5.03;;;;;;;;;;10571188;28;20035;-80
2022/08/14 01:46:43;;;;;;;10.23;5.07;;;;;;;;;;10565810;28;20551;-81
2022/08/14 01:52:13;;;;;;;13.85;5.63;;;;;;;;;;10551276;27;20044;-82
2022/08/14 01:57:45;;;;;;;7.07;4.45;;;;;;;;;;10587503;27;20058;-81
2022/08/14 02:03:07;;;;;;;9.85;4.93;;;;;;;;;;10564484;28;20036;-81
2022/08/14 02:08:13;;;;;;;9.30;5.05;;;;;;;;;;10587419;27;20107;-81
2022/08/14 02:13:38;;;;;;;9.77;4.93;;;;;;;;;;10581082;28;20032;-81
2022/08/14 02:18:48;;;;;;;8.90;4.45;;;;;;;;;;10569693;27;20126;-81
2022/08/14 02:24:00;;;;;;;7.82;4.82;;;;;;;;;;10568459;28;20414;-81
2022/08/14 02:29:26;;;;;;;9.68;5.03;;;;;;;;;;10582353;27;20076;-82
2022/08/14 02:34:54;;;;;;;6.28;4.03;;;;;;;;;;10566521;28;20051;-82
2022/08/14 02:40:03;;;;;;;8.82;5.32;;;;;;;;;;10564952;28;20172;-81
2022/08/14 02:45:13;;;;;;;10.18;4.88;;;;;;;;;;10566511;27;20032;-82
2022/08/14 02:50:27;;;;;;;7.60;4.53;;;;;;;;;;10565907;27;20039;-81
2022/08/14 02:55:52;;;;;;;9.60;4.90;;;;;;;;;;10584218;27;20332;-81
2022/08/14 03:01:03;;;;;;;11.77;4.53;;;;;;;;;;10565473;28;20468;-81
2022/08/14 03:06:11;;;;;;;8.73;4.50;;;;;;;;;;10587551;27;20049;-81
2022/08/14 03:11:23;;;;;;;7.60;4.10;;;;;;;;;;10583245;28;20047;-81
2022/08/14 03:16:44;;;;;;;8.88;4.68;;;;;;;;;;10567280;28;20086;-81
2022/08/14 03:21:55;;;;;;;10.98;4.53;;;;;;;;;;10563329;27;20040;-81
2022/08/14 03:27:04;;;;;;;7.55;4.40;;;;;;;;;;10586196;28;20158;-80
2022/08/14 03:32:19;;;;;;;8.25;4.15;;;;;;;;;;10584133;28;20040;-81
2022/08/14 03:37:39;;;;;;;6.82;4.03;;;;;;;;;;10584299;28;20071;-81
2022/08/14 03:43:04;;;;;;;7.32;4.32;;;;;;;;;;10581194;28;20043;-81
2022/08/14 03:48:18;;;;;;;6.20;3.90;;;;;;;;;;10567134;28;20067;-81
2022/08/14 03:53:36;;;;;;;10.75;4.30;;;;;;;;;;10564433;28;20043;-80
2022/08/14 03:58:44;;;;;;;5.70;3.63;;;;;;;;;;10585717;28;20069;-81
2022/08/14 04:03:56;;;;;;;5.57;3.25;;;;;;;;;;10567510;28;20051;-80
2022/08/14 04:09:07;;;;;;;5.50;3.47;;;;;;;;;;10578625;28;20100;-82
2022/08/14 04:14:13;;;;;;;7.05;4.05;;;;;;;;;;10579576;28;20066;-82
2022/08/14 04:19:25;;;;;;;6.63;4.05;;;;;;;;;;10566990;28;20059;-82
2022/08/14 04:24:37;;;;;;;5.00;3.33;;;;;;;;;;10567121;28;20043;-82
2022/08/14 04:29:45;;;;;;;5.90;3.53;;;;;;;;;;10549897;28;20139;-81
2022/08/14 04:34:53;;;;;;;9.38;3.47;;;;;;;;;;10560465;28;20032;-81
2022/08/14 04:45:42;;;;;;;7.85;4.10;;;;;;;;;;10565738;28;20054;-82
2022/08/14 04:50:51;;;;;;;6.93;3.63;;;;;;;;;;10567870;27;20043;-80
2022/08/14 04:55:59;;;;;;;6.30;3.88;;;;;;;;;;10558437;28;20062;-80
2022/08/14 05:01:07;;;;;;;8.32;2.88;;;;;;;;;;10577149;27;20423;-81
2022/08/14 05:06:24;;;;;;;4.70;2.13;;;;;;;;;;10570528;27;20366;-81
2022/08/14 05:11:43;;;;;;;2.42;1.75;;;;;;;;;;10571678;27;20058;-82
2022/08/14 05:16:49;;;;;;;4.05;2.80;;;;;;;;;;10567135;28;20070;-82
2022/08/14 05:22:03;;;;;;;2.45;1.85;;;;;;;;;;10570047;28;20036;-81
2022/08/14 05:27:21;;;;;;;6.05;2.97;;;;;;;;;;10558739;27;20046;-81
2022/08/14 05:32:27;;;;;;;3.63;2.30;;;;;;;;;;10569193;28;20358;-81
2022/08/14 05:37:42;;;;;;;6.88;3.28;;;;;;;;;;10567095;27;20051;-81
2022/08/14 05:42:49;;;;;;;5.75;2.22;;;;;;;;;;10562736;27;20044;-82
2022/08/14 05:47:57;;;;;;;3.15;2.38;;;;;;;;;;10587170;27;20093;-81
2022/08/14 05:53:16;;;;;;;3.75;2.03;;;;;;;;;;10562207;27;20116;-81
2022/08/14 05:58:24;;;;;;;2.67;1.88;;;;;;;;;;10552134;28;20046;-82
2022/08/14 06:03:44;;;;;;;3.58;2.08;;;;;;;;;;10555864;28;20040;-81
2022/08/14 06:08:59;;;;;;;4.70;3.00;;;;;;;;;;10549812;27;20059;-81
2022/08/14 06:14:10;;;;;;;4.22;2.22;;;;;;;;;;10579938;27;20103;-81
2022/08/14 06:19:34;;;;;;;5.23;3.13;;;;;;;;;;10551758;28;20041;-81
2022/08/14 06:24:44;;;;;;;3.55;2.25;;;;;;;;;;10582188;28;20047;-81
2022/08/14 06:29:50;;;;;;;4.78;3.20;;;;;;;;;;10567339;27;20077;-80
2022/08/14 06:35:00;;;;;;;4.35;2.80;;;;;;;;;;10572913;28;20040;-81
2022/08/14 06:40:19;;;;;;;5.63;3.58;;;;;;;;;;10580676;28;20051;-81
2022/08/14 06:45:32;;;;;;;5.85;3.35;;;;;;;;;;10571195;27;20049;-80
2022/08/14 06:50:40;;;;;;;4.20;2.75;;;;;;;;;;10558453;28;20071;-80
2022/08/14 06:55:53;;;;;;;3.47;2.58;;;;;;;;;;10570950;28;20275;-82
2022/08/14 07:06:31;;;;;;;4.97;3.20;;;;;;;;;;10559619;28;20101;-81
2022/08/14 07:11:55;;;;;;;5.17;3.30;;;;;;;;;;10624468;27;20386;-80
2022/08/14 07:17:05;;;;;;;3.63;2.90;;;;;;;;;;10605055;27;20081;-81
2022/08/14 07:22:16;;;;;;;5.38;2.97;;;;;;;;;;10604757;27;20096;-81
2022/08/14 07:27:39;;;;;;;4.15;2.70;;;;;;;;;;10591703;27;20046;-80
2022/08/14 07:32:47;;;;;;;4.63;3.22;;;;;;;;;;10606800;27;20039;-80
2022/08/14 07:37:52;;;;;;;4.63;3.15;;;;;;;;;;10610261;27;20043;-81
2022/08/14 07:43:12;;;;;;;3.42;3.08;;;;;;;;;;10606887;27;20120;-81
2022/08/14 07:48:17;;;;;;;3.55;3.03;;;;;;;;;;10627707;27;20035;-81
2022/08/14 07:53:31;;;;;;;4.05;2.90;;;;;;;;;;10592440;27;20111;-81
2022/08/14 08:04:12;;;;;;;2.70;2.50;;;;;;;;;;10608524;27;20173;-81
2022/08/14 08:09:28;;;;;;;4.00;2.90;;;;;;;;;;10612188;27;20043;-81
2022/08/14 08:14:44;;;;;;;3.00;2.70;;;;;;;;;;10608971;28;20080;-82
2022/08/14 08:20:11;;;;;;;3.23;2.93;;;;;;;;;;10610685;28;20068;-81
2022/08/14 08:25:16;;;;;;;3.50;3.20;;;;;;;;;;10613021;27;20329;-81
2022/08/14 08:30:23;;;;;;;5.55;2.83;;;;;;;;;;10630786;27;20039;-82
2022/08/14 08:35:34;;;;;;;3.33;3.03;;;;;;;;;;10631426;27;20044;-82
2022/08/14 08:40:54;;;;;;;3.20;3.00;;;;;;;;;;10612242;27;20059;-83
2022/08/14 08:46:05;;;;;;;3.80;3.03;;;;;;;;;;10613387;27;20122;-83
2022/08/14 08:51:22;;;;;;;3.80;3.50;;;;;;;;;;10593822;27;20043;-82
2022/08/14 08:56:36;;;;;;;3.55;3.25;;;;;;;;;;10615035;27;20035;-83
2022/08/14 09:01:52;;;;;;;3.60;3.30;;;;;;;;;;10609926;27;20035;-83
2022/08/14 09:07:01;;;;;;;3.58;3.30;;;;;;;;;;10614269;27;20467;-84
2022/08/14 09:12:20;;;;;;;3.67;3.38;;;;;;;;;;10632998;27;20929;-84
2022/08/14 09:17:40;;;;;;;4.18;3.78;;;;;;;;;;10615659;27;20509;-83
2022/08/14 09:22:51;;;;;;;3.83;3.50;;;;;;;;;;10596951;27;20019;-82
2022/08/14 09:28:02;;;;;;;3.70;3.40;;;;;;;;;;10616051;27;20039;-82
2022/08/14 09:33:07;;;;;;;;;;;;;;;;;;10634965;27;20273;-83
2022/08/14 09:38:30;;;;;;;3.70;3.50;;;;;;;;;;10612972;27;19947;-83
2022/08/14 09:43:43;;;;;;;3.92;3.63;;;;;;;;;;10629214;27;20426;-83
2022/08/14 09:48:58;;;;;;;3.67;3.40;;;;;;;;;;10593262;27;20070;-83
2022/08/14 09:54:17;;;;;;;3.78;3.47;;;;;;;;;;10629774;27;20030;-83
2022/08/14 09:59:28;;;;;;;4.43;3.65;;;;;;;;;;10631438;27;20036;-84
2022/08/14 10:04:39;;;;;;;5.05;3.90;;;;;;;;;;10599564;27;20035;-84
2022/08/14 10:10:05;;;;;;;4.10;3.80;;;;;;;;;;10625652;27;20031;-84
2022/08/14 10:15:33;;;;;;;4.20;3.90;;;;;;;;;;10630111;27;20486;-84
2022/08/14 10:20:42;;;;;;;4.28;3.53;;;;;;;;;;10629850;27;20047;-83
2022/08/14 10:26:03;;;;;;;3.70;3.40;;;;;;;;;;10631092;27;20031;-84
2022/08/14 10:31:17;;;;;;;3.47;3.17;;;;;;;;;;10614137;27;20124;-85
2022/08/14 10:42:12;;;;;;;5.53;3.65;;;;;;;;;;10629794;27;20115;-84
2022/08/14 10:47:39;;;;;;;3.92;3.63;;;;;;;;;;10595572;27;20066;-85
2022/08/14 10:53:06;;;;;;;4.10;3.80;;;;;;;;;;10608942;27;20039;-86
2022/08/14 10:58:15;;;;;;;4.32;3.45;;;;;;;;;;10613033;27;20154;-85
2022/08/14 11:03:24;;;;;;;3.25;3.00;;;;;;;;;;10611416;27;20047;-84
2022/08/14 11:08:44;;;;;;;3.25;3.05;;;;;;;;;;10611332;27;20141;-83
2022/08/14 11:13:56;;;;;;;5.65;3.42;;;;;;;;;;10631089;27;20069;-84
2022/08/14 11:19:03;;;;;;;3.42;3.20;;;;;;;;;;10589802;27;20031;-85
2022/08/14 11:24:14;;;;;;;3.65;3.30;;;;;;;;;;10630431;27;20395;-84
2022/08/14 11:30:05;;;;;;;3.92;3.22;;;;;;;;;;10609962;27;20083;-84
2022/08/14 11:35:50;;;;;;;3.80;3.45;;;;;;;;;;10630040;27;20553;-84
2022/08/14 11:41:10;;;;;;;2.83;2.63;;;;;;;;;;10625968;27;20051;-84
2022/08/14 11:46:27;;;;;;;3.30;3.00;;;;;;;;;;10608415;27;20211;-85
2022/08/14 11:51:40;;;;;;;3.55;3.00;;;;;;;;;;10609423;27;20039;-85
2022/08/14 12:02:40;;;;;;;3.10;2.90;;;;;;;;;;10637178;27;20039;-85
2022/08/14 12:08:14;;;;;;;3.20;3.00;;;;;;;;;;10638418;27;20055;-85
2022/08/14 12:13:35;;;;;;;3.10;2.80;;;;;;;;;;10617110;27;20042;-85
2022/08/14 12:18:49;;;;;;;5.15;2.95;;;;;;;;;;10617113;27;20043;-85
2022/08/14 12:24:05;;;;;;;3.40;3.10;;;;;;;;;;10638141;27;20143;-84
2022/08/14 12:29:17;;;;;;;4.55;3.28;;;;;;;;;;10618961;27;20039;-85
2022/08/14 12:34:53;;;;;;;3.25;2.97;;;;;;;;;;10633252;27;20032;-85
2022/08/14 12:40:12;;;;;;;4.18;3.72;;;;;;;;;;10616146;27;20058;-85
2022/08/14 12:45:38;;;;;;;5.22;4.20;;;;;;;;;;10642363;27;20098;-84
2022/08/14 12:51:02;;;;;;;4.40;4.00;;;;;;;;;;10628462;27;20222;-85
2022/08/14 12:56:18;;;;;;;5.95;3.40;;;;;;;;;;10602028;27;20091;-84
2022/08/14 13:01:40;;;;;;;3.80;3.40;;;;;;;;;;10616545;27;20039;-84
2022/08/14 13:07:12;;;;;;;5.90;3.47;;;;;;;;;;10629207;27;20047;-83
2022/08/14 13:12:28;;;;;;;4.90;3.90;;;;;;;;;;10596735;27;20039;-84
2022/08/14 13:17:59;;;;;;;4.63;3.50;;;;;;;;;;10631840;27;20046;-82
2022/08/14 13:23:13;;;;;;;3.70;3.40;;;;;;;;;;10626931;27;20287;-83
2022/08/14 13:28:22;;;;;;;7.35;3.83;;;;;;;;;;10596915;27;20106;-83
2022/08/14 13:33:36;;;;;;;5.88;3.95;;;;;;;;;;10635239;27;20035;-84
2022/08/14 13:38:59;;;;;;;8.15;3.70;;;;;;;;;;10633370;27;20429;-84
2022/08/14 13:44:15;;;;;;;5.30;3.33;;;;;;;;;;10626977;27;20134;-84
2022/08/14 13:49:33;;;;;;;4.63;3.53;;;;;;;;;;10606845;27;20035;-84
2022/08/14 13:54:37;;;;;;;6.03;3.25;;;;;;;;;;10612537;27;20045;-85
2022/08/14 13:59:51;;;;;;;5.05;3.30;;;;;;;;;;10614323;27;20081;-84
2022/08/14 14:05:11;;;;;;;4.68;3.50;;;;;;;;;;10614004;27;20130;-84
2022/08/14 14:10:20;;;;;;;4.47;3.58;;;;;;;;;;10606348;27;20058;-83
2022/08/14 14:15:36;;;;;;;3.72;3.30;;;;;;;;;;10615674;27;20035;-82
2022/08/14 14:21:02;;;;;;;4.20;3.30;;;;;;;;;;10614626;27;20055;-83
2022/08/14 14:26:14;;;;;;;4.35;3.33;;;;;;;;;;10590794;27;20027;-83
2022/08/14 14:31:28;;;;;;;3.85;3.50;;;;;;;;;;10614277;27;20107;-83
2022/08/14 14:36:34;;;;;;;3.42;3.10;;;;;;;;;;10605471;27;20047;-83
2022/08/14 14:41:44;;;;;;;5.47;4.00;;;;;;;;;;10593671;27;20035;-83
2022/08/14 14:46:52;;;;;;;3.20;2.90;;;;;;;;;;10598446;27;20612;-83
2022/08/14 14:52:02;;;;;;;5.32;3.28;;;;;;;;;;10625040;27;20047;-83
2022/08/14 14:57:12;;;;;;;3.92;3.38;;;;;;;;;;10628424;27;20035;-83
2022/08/14 15:02:42;;;;;;;4.57;3.30;;;;;;;;;;10610351;27;20074;-82
2022/08/14 15:07:53;;;;;;;4.97;3.83;;;;;;;;;;10610399;27;20050;-83
2022/08/14 15:13:01;;;;;;;4.10;3.33;;;;;;;;;;10605953;27;20051;-83
2022/08/14 15:18:12;;;;;;;4.60;2.95;;;;;;;;;;10605506;27;20051;-83
2022/08/14 15:23:42;;;;;;;8.00;3.47;;;;;;;;;;10625785;27;20539;-83
2022/08/14 15:28:53;;;;;;;5.00;3.35;;;;;;;;;;10630943;27;20051;-83
2022/08/14 15:34:24;;;;;;;4.93;3.80;;;;;;;;;;10619194;27;20051;-84
2022/08/14 15:39:47;;;;;;;7.38;4.25;;;;;;;;;;10616129;28;20095;-83
2022/08/14 15:44:55;;;;;;;5.13;3.38;;;;;;;;;;10608181;27;20536;-83
2022/08/14 15:50:07;;;;;;;5.38;3.58;;;;;;;;;;10607548;27;20484;-82
2022/08/14 15:55:14;;;;;;;5.70;3.40;;;;;;;;;;10610652;27;20247;-83
2022/08/14 16:05:56;;;;;;;6.07;3.10;;;;;;;;;;10606291;27;20063;-84
2022/08/14 16:11:08;;;;;;;4.97;3.58;;;;;;;;;;10623586;27;20107;-83
2022/08/14 16:16:20;;;;;;;5.13;3.83;;;;;;;;;;10623272;27;20039;-82
2022/08/14 16:21:53;;;;;;;3.95;2.95;;;;;;;;;;10592781;27;20074;-82
2022/08/14 16:27:27;;;;;;;6.00;3.65;;;;;;;;;;10639123;27;20074;-83
2022/08/14 16:33:14;;;;;;;4.10;3.28;;;;;;;;;;10609530;28;20047;-83
2022/08/14 16:38:45;;;;;;;4.32;3.40;;;;;;;;;;10621685;27;20498;-83
2022/08/14 16:44:03;;;;;;;8.07;3.50;;;;;;;;;;10609581;27;20550;-83
2022/08/14 16:49:26;;;;;;;4.22;3.10;;;;;;;;;;10615504;27;20091;-83
2022/08/14 16:54:55;;;;;;;5.90;3.50;;;;;;;;;;10613767;27;20063;-82
2022/08/14 17:00:06;;;;;;;6.32;3.38;;;;;;;;;;10610700;27;20043;-81
2022/08/14 17:05:37;;;;;;;7.27;3.60;;;;;;;;;;10618080;27;20115;-82
2022/08/14 17:11:04;;;;;;;12.90;5.72;;;;;;;;;;10630811;27;20046;-83
2022/08/14 17:16:23;;;;;;;4.70;3.40;;;;;;;;;;10613313;27;20272;-83
2022/08/14 17:21:36;;;;;;;6.72;4.05;;;;;;;;;;10611195;27;20118;-83
2022/08/14 17:26:49;;;;;;;5.93;3.30;;;;;;;;;;10616035;27;20031;-83
2022/08/14 17:32:08;;;;;;;5.93;3.35;;;;;;;;;;10612380;27;20046;-82
2022/08/14 17:37:26;;;;;;;4.88;3.10;;;;;;;;;;10615113;27;20019;-82
2022/08/14 17:42:51;;;;;;;6.75;3.90;;;;;;;;;;10614437;27;20392;-83
2022/08/14 17:48:03;;;;;;;6.20;3.72;;;;;;;;;;10600298;27;20081;-82
2022/08/14 17:53:11;;;;;;;4.20;3.15;;;;;;;;;;10608983;27;20053;-83
2022/08/14 18:03:49;;;;;;;4.75;3.33;;;;;;;;;;10610135;27;20035;-83
2022/08/14 18:09:13;;;;;;;5.85;3.70;;;;;;;;;;10628707;27;20078;-82
2022/08/14 18:14:35;;;;;;;5.85;3.85;;;;;;;;;;10631851;27;20054;-83
2022/08/14 18:19:53;;;;;;;5.93;3.97;;;;;;;;;;10629955;27;20279;-83
2022/08/14 18:30:26;;;;;;;5.38;3.60;;;;;;;;;;10633207;27;20126;-84
2022/08/14 18:35:52;;;;;;;7.13;3.88;;;;;;;;;;10633565;27;20038;-83
2022/08/14 18:41:28;;;;;;;4.95;3.72;;;;;;;;;;10593780;27;20077;-83
2022/08/14 18:47:00;;;;;;;6.82;4.13;;;;;;;;;;10597945;27;20043;-82
2022/08/14 18:52:16;;;;;;;6.80;3.80;;;;;;;;;;10614258;27;20543;-82
2022/08/14 18:57:27;;;;;;;6.18;4.15;;;;;;;;;;10609685;27;20088;-82
2022/08/14 19:02:47;;;;;;;5.97;4.13;;;;;;;;;;10602044;27;20043;-83
2022/08/14 19:08:07;;;;;;;5.82;3.47;;;;;;;;;;10632174;27;20039;-82
2022/08/14 19:13:33;;;;;;;8.55;4.20;;;;;;;;;;10611295;27;20075;-81
2022/08/14 19:18:59;;;;;;;6.75;4.30;;;;;;;;;;10626794;27;20042;-82
2022/08/14 19:24:29;;;;;;;6.30;4.00;;;;;;;;;;10628128;27;20150;-81
2022/08/14 19:29:51;;;;;;;6.63;3.75;;;;;;;;;;10625860;27;20031;-82
2022/08/14 19:35:00;;;;;;;7.85;4.10;;;;;;;;;;10588928;27;20047;-82
2022/08/14 19:40:30;;;;;;;7.22;4.15;;;;;;;;;;10595769;27;20027;-81
2022/08/14 19:45:39;;;;;;;6.28;3.67;;;;;;;;;;10615450;27;20106;-81
2022/08/14 19:56:11;;;;;;;10.07;4.35;;;;;;;;;;10625382;27;20937;-83
2022/08/14 20:01:32;;;;;;;6.72;4.00;;;;;;;;;;10623425;27;20121;-82
2022/08/14 20:06:40;;;;;;;7.03;4.53;;;;;;;;;;10621426;27;20053;-82
2022/08/14 20:11:50;;;;;;;8.07;4.65;;;;;;;;;;10623494;28;20207;-83
2022/08/14 20:17:05;;;;;;;9.73;4.43;;;;;;;;;;10628563;27;20035;-82
2022/08/14 20:22:10;;;;;;;6.90;4.22;;;;;;;;;;10623835;27;20088;-82
2022/08/14 20:27:38;;;;;;;10.63;4.55;;;;;;;;;;10621553;27;20162;-81
2022/08/14 20:32:45;;;;;;;6.68;4.47;;;;;;;;;;10617631;27;20027;-82
2022/08/14 20:37:54;;;;;;;7.18;4.57;;;;;;;;;;10617294;27;20044;-82
2022/08/14 20:48:28;;;;;;;7.68;4.93;;;;;;;;;;10622651;27;20074;-82
2022/08/14 20:53:56;;;;;;;7.90;5.20;;;;;;;;;;10625973;27;20107;-82
2022/08/14 20:59:11;;;;;;;9.00;4.50;;;;;;;;;;10621644;27;20036;-82
2022/08/14 21:04:25;;;;;;;9.10;4.70;;;;;;;;;;10623922;27;20115;-82
2022/08/14 21:09:29;;;;;;;6.95;4.28;;;;;;;;;;10588575;27;20040;-80
2022/08/14 21:14:53;;;;;;;8.02;4.07;;;;;;;;;;10588392;27;20041;-82
2022/08/14 21:20:01;;;;;;;5.93;3.28;;;;;;;;;;10589972;27;20031;-81
2022/08/14 21:25:28;;;;;;;8.95;4.38;;;;;;;;;;10598470;27;20089;-82
2022/08/14 21:30:33;;;;;;;8.07;2.88;;;;;;;;;;10593941;27;20032;-81
2022/08/14 21:35:57;;;;;;;9.68;4.80;;;;;;;;;;10592846;27;20088;-82
2022/08/14 21:41:01;;;;;;;7.88;4.80;;;;;;;;;;10581807;28;20044;-81
2022/08/14 21:46:24;;;;;;;8.00;4.70;;;;;;;;;;10590893;28;20099;-81
2022/08/14 21:51:30;;;;;;;8.93;4.72;;;;;;;;;;10581804;28;20047;-81
2022/08/14 21:56:54;;;;;;;9.38;3.53;;;;;;;;;;10601042;27;20032;-82
2022/08/14 22:02:00;;;;;;;10.70;6.07;;;;;;;;;;10590036;28;20040;-81
2022/08/14 22:07:08;;;;;;;9.48;5.40;;;;;;;;;;10591784;27;20031;-80
2022/08/14 22:12:13;;;;;;;9.35;5.40;;;;;;;;;;10597595;27;20051;-80
2022/08/14 22:17:37;;;;;;;10.38;5.70;;;;;;;;;;10586177;27;20047;-80
2022/08/14 22:22:47;;;;;;;8.80;5.55;;;;;;;;;;10586234;27;20043;-81
2022/08/14 22:27:58;;;;;;;8.77;5.30;;;;;;;;;;10584169;27;20576;-81
2022/08/14 22:33:03;;;;;;;9.80;4.90;;;;;;;;;;10584787;27;20108;-81
2022/08/14 22:38:07;;;;;;;9.70;4.85;;;;;;;;;;10590389;27;20061;-81
2022/08/14 22:43:32;;;;;;;9.23;5.20;;;;;;;;;;10579129;27;20154;-81
2022/08/14 22:48:37;;;;;;;9.73;5.30;;;;;;;;;;10585654;27;20078;-80
2022/08/14 22:53:40;;;;;;;;;;;;;;;;;;10582264;27;20051;-80
2022/08/14 22:58:45;;;;;;;8.98;5.30;;;;;;;;;;10586748;27;19947;-82
2022/08/14 23:03:52;;;;;;;8.70;4.15;;;;;;;;;;10588463;27;20066;-81
2022/08/14 23:09:10;;;;;;;7.45;4.95;;;;;;;;;;10584372;27;20032;-80
2022/08/14 23:14:35;;;;;;;11.57;5.95;;;;;;;;;;10583395;28;20028;-80
2022/08/14 23:19:43;;;;;;;5.97;4.03;;;;;;;;;;10587178;27;20031;-81
2022/08/14 23:24:48;;;;;;;11.10;4.70;;;;;;;;;;10583477;27;20085;-81
2022/08/14 23:29:54;;;;;;;8.00;4.90;;;;;;;;;;10583121;28;20116;-81
2022/08/14 23:34:57;;;;;;;9.15;4.28;;;;;;;;;;10586952;28;20044;-81
2022/08/14 23:40:00;;;;;;;6.38;4.25;;;;;;;;;;10584415;27;20045;-81
2022/08/14 23:45:06;;;;;;;6.60;4.50;;;;;;;;;;10581464;28;20185;-80
2022/08/14 23:50:09;;;;;;;8.70;4.47;;;;;;;;;;10581427;28;20043;-81
2022/08/14 23:55:33;;;;;;;6.87;4.20;;;;;;;;;;10581488;28;20114;-81
